메인 페이지
METAR-TAF:

METAR-TAF

공항 :

아이딘, 터키

위도: 37-48-54N, 경도: 27-53-21E, 고도: 31m

현재 날씨관측

예보는 54분 전, 14:50시(UTC)에 발표되었습니다.
서북서8kt
온도 23°C
습도 57%
기압 1019 hPa
시정 10km 이상
고도 3600ft 상공 구름 보통

METAR: LTBD 221450Z 29008KT 9999 SCT036 23/14 Q1019

시각: 18:44 (15:44 UTC)

예보

예보는 2 시간 4분 전, 13:40시(UTC)에 발표되었습니다.
예보 대상 시간: 22일 15시부터 22일 24시까지 (UTC)
여러 방향의 바람 2kt
시정 10km 이상
고도 3000ft 상공 구름 보통
전환 중
22일 17시부터 22일 19시까지 (UTC)
시정 10km 이상
1500m 미만 상공 구름 및 적란운 없음

TAF: LTBD 221340Z 2215/2224 VRB02KT 9999 SCT030 BECMG 2217/2219 CAVOK

4,000개 이상의 공항 관측 자료 및 예보 (METAR 및 TAF 보고).

지도상에서 검색 가능한 기상관측소가 노란 점과 빨간 점으로 표시되어 있습니다.

기상관측소 명을 보려면 표시 위로 마우스를 이동하세요.

날씨 관측과 예보를 보려면 클릭하세요.

지도 변경 : 확대하려면 엑스 표시가 있는 녹색 버튼, 축소하려면 빼기 표시가 있는 녹색 버튼, 다음 페이지의 지도를 보려면 녹색 화살표를 클릭하세요.


METAR-TAF: